Time;durP1;ratioP1;P1;durP2;ratioP2;P2;SDS_P1;SDS_P2;PMS_P1;PMS_P2;Temp;Humidity;BMP_temperature;BMP_pressure;BME280_temperature;BME280_humidity;BME280_pressure;Samples;Min_cycle;Max_cycle;Signal;HPM_P1;HPM_P2
2023/09/03 00:02:13;;;;;;;5.50;3.40;;;16.40;68.00;;;;;;5137303;27;20418;-73
2023/09/03 00:04:40;;;;;;;5.40;3.30;;;16.40;68.00;;;;;;5089524;28;20136;-72
2023/09/03 00:07:07;;;;;;;6.15;3.60;;;16.40;67.90;;;;;;5071116;28;20327;-73
2023/09/03 00:09:34;;;;;;;6.60;4.20;;;16.40;68.00;;;;;;5106453;27;20498;-72
2023/09/03 00:12:02;;;;;;;5.90;3.28;;;16.40;68.00;;;;;;5099292;27;20095;-72
2023/09/03 00:14:29;;;;;;;6.47;3.90;;;16.30;68.10;;;;;;5092283;27;20128;-73
2023/09/03 00:16:57;;;;;;;5.47;3.40;;;16.30;67.90;;;;;;5103861;27;20040;-72
2023/09/03 00:19:24;;;;;;;6.50;3.95;;;16.20;68.00;;;;;;5106801;27;20290;-72
2023/09/03 00:21:51;;;;;;;7.32;3.63;;;16.20;68.00;;;;;;5085173;28;20044;-73
2023/09/03 00:24:18;;;;;;;6.97;3.92;;;16.20;68.10;;;;;;5090864;28;20694;-72
2023/09/03 00:26:45;;;;;;;6.80;3.50;;;16.10;68.20;;;;;;5108050;27;20044;-73
2023/09/03 00:29:12;;;;;;;6.80;4.10;;;16.10;68.30;;;;;;5072750;27;20048;-72
2023/09/03 00:31:39;;;;;;;8.90;3.97;;;16.10;68.20;;;;;;5077058;28;20278;-72
2023/09/03 00:34:08;;;;;;;8.38;3.83;;;16.00;68.20;;;;;;5083119;28;20052;-72
2023/09/03 00:36:34;;;;;;;6.78;3.58;;;16.00;68.20;;;;;;5081929;28;20560;-72
2023/09/03 00:39:00;;;;;;;7.25;3.90;;;16.00;68.20;;;;;;5091512;27;20045;-73
2023/09/03 00:41:29;;;;;;;4.60;2.70;;;16.00;68.10;;;;;;5087956;27;20640;-73
2023/09/03 00:43:56;;;;;;;7.75;3.70;;;16.00;68.10;;;;;;5106233;27;20076;-72
2023/09/03 00:46:24;;;;;;;9.80;4.20;;;16.00;68.20;;;;;;5075900;28;20082;-72
2023/09/03 00:48:52;;;;;;;5.45;3.00;;;15.90;68.30;;;;;;5092435;27;20053;-72
2023/09/03 00:51:20;;;;;;;6.17;3.43;;;15.90;68.30;;;;;;5096732;27;20080;-73
2023/09/03 00:53:54;;;;;;;6.07;3.40;;;15.80;68.30;;;;;;5088659;27;20406;-72
2023/09/03 00:56:22;;;;;;;6.70;3.40;;;15.80;68.40;;;;;;5075430;28;20052;-72
2023/09/03 00:58:49;;;;;;;6.78;3.25;;;15.80;68.30;;;;;;5088955;27;20440;-72
2023/09/03 01:01:16;;;;;;;6.07;3.20;;;15.80;68.40;;;;;;5108050;27;20040;-72
2023/09/03 01:03:43;;;;;;;5.93;3.53;;;15.70;68.40;;;;;;5100646;27;20186;-73
2023/09/03 01:06:10;;;;;;;6.47;3.78;;;15.70;68.50;;;;;;5089755;27;20830;-72
2023/09/03 01:08:39;;;;;;;7.13;3.42;;;15.60;68.50;;;;;;5094426;27;20167;-72
2023/09/03 01:11:16;;;;;;;6.07;3.40;;;15.60;68.70;;;;;;5104552;28;20051;-72
2023/09/03 01:13:51;;;;;;;6.80;3.60;;;15.60;68.90;;;;;;5101370;27;20131;-72
2023/09/03 01:16:23;;;;;;;6.00;3.33;;;15.60;68.90;;;;;;5087651;27;20048;-72
2023/09/03 01:18:51;;;;;;;5.10;2.83;;;15.60;69.00;;;;;;5105516;27;20278;-72
2023/09/03 01:21:49;;;;;;;4.95;2.90;;;15.50;69.00;;;;;;5105375;27;20067;-72
2023/09/03 01:24:36;;;;;;;7.25;3.10;;;15.50;69.00;;;;;;5102163;27;20040;-72
2023/09/03 01:27:14;;;;;;;6.07;3.20;;;15.50;69.20;;;;;;5080521;28;20049;-72
2023/09/03 01:29:43;;;;;;;6.07;3.43;;;15.40;69.40;;;;;;5088093;27;20765;-72
2023/09/03 01:32:12;;;;;;;6.47;3.50;;;15.40;69.50;;;;;;5112397;27;20353;-72
2023/09/03 01:34:40;;;;;;;6.80;3.58;;;15.30;69.50;;;;;;5101717;27;20146;-72
2023/09/03 01:37:09;;;;;;;6.00;3.72;;;15.30;69.60;;;;;;5103710;27;20609;-72
2023/09/03 01:39:36;;;;;;;5.50;2.78;;;15.20;69.70;;;;;;5091007;27;20052;-73
2023/09/03 01:42:03;;;;;;;5.67;2.70;;;15.20;69.80;;;;;;5071225;27;20056;-72
2023/09/03 01:44:30;;;;;;;6.40;2.90;;;15.20;69.80;;;;;;5125161;27;20338;-72
2023/09/03 01:47:09;;;;;;;6.38;3.45;;;15.20;69.80;;;;;;5098098;27;20701;-72
2023/09/03 01:49:50;;;;;;;5.82;3.40;;;15.20;69.80;;;;;;5126022;27;20084;-72
2023/09/03 01:52:27;;;;;;;5.55;3.20;;;15.20;69.90;;;;;;5102823;27;20151;-72
2023/09/03 01:55:00;;;;;;;6.20;3.10;;;15.20;70.00;;;;;;5111706;27;20131;-72
2023/09/03 01:57:30;;;;;;;5.85;3.17;;;15.10;70.10;;;;;;5093839;27;20327;-72
2023/09/03 02:00:02;;;;;;;5.53;3.17;;;15.00;70.30;;;;;;5093764;27;20048;-72
2023/09/03 02:02:31;;;;;;;7.50;3.58;;;15.00;70.40;;;;;;5115678;27;20123;-72
2023/09/03 02:04:58;;;;;;;7.03;3.85;;;15.00;70.40;;;;;;5113581;27;20552;-72
2023/09/03 02:07:25;;;;;;;8.37;3.80;;;15.00;70.40;;;;;;5076519;28;20160;-72
2023/09/03 02:09:52;;;;;;;5.53;3.45;;;15.00;70.50;;;;;;5068105;28;20279;-72
2023/09/03 02:12:23;;;;;;;8.10;3.65;;;14.90;70.50;;;;;;5102707;27;20123;-72
2023/09/03 02:14:51;;;;;;;7.03;4.10;;;14.90;70.50;;;;;;5106449;27;20538;-72
2023/09/03 02:17:20;;;;;;;6.90;3.83;;;14.90;70.60;;;;;;5075493;28;20607;-72
2023/09/03 02:19:49;;;;;;;6.67;3.70;;;14.90;70.70;;;;;;5086253;27;20130;-72
2023/09/03 02:22:16;;;;;;;6.18;3.38;;;14.90;70.70;;;;;;5087237;27;20279;-72
2023/09/03 02:24:43;;;;;;;6.03;3.20;;;14.90;70.70;;;;;;5092768;27;20052;-72
2023/09/03 02:27:11;;;;;;;7.43;3.35;;;14.90;70.70;;;;;;5087829;27;20133;-73
2023/09/03 02:29:39;;;;;;;5.88;3.17;;;14.80;70.80;;;;;;5121777;27;20044;-72
2023/09/03 02:32:06;;;;;;;5.70;3.40;;;14.80;70.70;;;;;;5070101;28;20050;-73
2023/09/03 02:34:33;;;;;;;6.65;3.88;;;14.80;70.60;;;;;;5077487;28;20305;-72
2023/09/03 02:37:02;;;;;;;6.45;3.78;;;14.80;70.80;;;;;;5114766;27;20422;-72
2023/09/03 02:39:28;;;;;;;7.47;4.28;;;14.80;70.90;;;;;;5104984;27;20052;-72
2023/09/03 02:41:57;;;;;;;8.20;4.68;;;14.70;70.90;;;;;;5087171;27;20143;-72
2023/09/03 02:44:24;;;;;;;7.97;4.10;;;14.70;71.10;;;;;;5123791;27;20051;-72
2023/09/03 02:46:51;;;;;;;7.32;4.15;;;14.70;71.10;;;;;;5070874;27;20954;-72
2023/09/03 02:49:18;;;;;;;6.88;4.07;;;14.70;71.10;;;;;;5117431;27;20059;-72
2023/09/03 02:51:45;;;;;;;7.10;3.90;;;14.70;71.10;;;;;;5086710;27;20131;-72
2023/09/03 02:54:13;;;;;;;6.72;3.75;;;14.70;71.30;;;;;;5093236;27;20052;-72
2023/09/03 02:56:40;;;;;;;6.67;4.03;;;14.60;71.30;;;;;;5073399;28;20157;-72
2023/09/03 02:59:07;;;;;;;7.28;3.90;;;14.70;71.30;;;;;;5117020;27;20299;-72
2023/09/03 03:01:34;;;;;;;7.25;4.18;;;14.60;71.30;;;;;;5103429;28;20528;-72
2023/09/03 03:04:01;;;;;;;5.93;3.42;;;14.60;71.40;;;;;;5086010;27;20668;-72
2023/09/03 03:06:28;;;;;;;5.43;2.55;;;14.60;71.50;;;;;;5103703;27;20068;-73
2023/09/03 03:08:55;;;;;;;5.23;3.20;;;14.60;71.50;;;;;;5078028;27;20130;-72
2023/09/03 03:11:24;;;;;;;5.70;3.20;;;14.60;71.50;;;;;;5106002;27;20271;-72
2023/09/03 03:13:55;;;;;;;4.97;2.90;;;14.60;71.50;;;;;;5103748;27;20152;-72
2023/09/03 03:16:25;;;;;;;5.57;3.08;;;14.50;71.70;;;;;;5069748;28;20110;-72
2023/09/03 03:18:54;;;;;;;6.35;3.55;;;14.50;71.80;;;;;;5080579;28;20040;-72
2023/09/03 03:21:25;;;;;;;5.80;3.20;;;14.40;71.80;;;;;;5078187;28;20149;-72
2023/09/03 03:23:57;;;;;;;5.85;3.10;;;14.40;71.80;;;;;;5111733;27;20301;-72
2023/09/03 03:26:34;;;;;;;7.88;4.20;;;14.40;72.00;;;;;;5077949;27;20185;-72
2023/09/03 03:29:01;;;;;;;7.30;3.95;;;14.30;72.10;;;;;;5104959;27;20080;-72
2023/09/03 03:31:32;;;;;;;6.43;3.40;;;14.30;72.20;;;;;;5089303;28;20048;-72
2023/09/03 03:34:00;;;;;;;6.90;4.30;;;14.30;72.20;;;;;;5074864;28;21142;-72
2023/09/03 03:36:29;;;;;;;5.97;3.60;;;14.30;72.10;;;;;;5096602;27;20251;-72
2023/09/03 03:38:56;;;;;;;6.18;3.53;;;14.30;72.00;;;;;;5087881;28;20048;-72
2023/09/03 03:41:23;;;;;;;6.40;3.28;;;14.20;71.80;;;;;;5076201;28;20051;-72
2023/09/03 03:43:55;;;;;;;7.88;3.88;;;14.20;71.90;;;;;;5077099;27;20580;-72
2023/09/03 03:46:24;;;;;;;6.07;3.40;;;14.20;72.00;;;;;;5086277;27;20051;-72
2023/09/03 03:48:55;;;;;;;6.05;3.22;;;14.20;71.90;;;;;;5077939;28;20590;-72
2023/09/03 03:51:22;;;;;;;6.22;3.30;;;14.20;71.90;;;;;;5076563;28;20059;-72
2023/09/03 03:53:50;;;;;;;5.55;3.13;;;14.20;71.90;;;;;;5076177;28;20100;-72
2023/09/03 03:56:18;;;;;;;5.63;2.75;;;14.20;72.00;;;;;;5100245;27;20049;-72
2023/09/03 03:58:45;;;;;;;5.80;2.60;;;14.10;71.90;;;;;;5086005;27;20103;-72
2023/09/03 04:01:15;;;;;;;4.07;1.98;;;14.10;71.80;;;;;;5072977;28;20239;-72
2023/09/03 04:03:42;;;;;;;4.03;1.83;;;14.10;71.90;;;;;;5071974;28;20487;-72
2023/09/03 04:06:09;;;;;;;4.15;1.95;;;14.10;72.00;;;;;;5121519;27;20580;-72
2023/09/03 04:08:38;;;;;;;4.63;2.30;;;14.10;72.00;;;;;;5085806;28;20040;-72
2023/09/03 04:11:07;;;;;;;4.10;2.17;;;14.10;72.00;;;;;;5078257;28;20506;-72
2023/09/03 04:13:35;;;;;;;4.45;2.38;;;14.10;71.90;;;;;;5107965;27;20343;-72
2023/09/03 04:16:07;;;;;;;4.57;2.47;;;14.00;71.90;;;;;;5123616;27;20123;-72
2023/09/03 04:18:36;;;;;;;4.63;2.30;;;14.00;72.20;;;;;;5083723;28;20055;-72
2023/09/03 04:21:03;;;;;;;4.53;2.35;;;14.00;72.20;;;;;;5089560;28;20080;-72
2023/09/03 04:23:30;;;;;;;4.00;1.90;;;13.90;72.20;;;;;;5089837;27;20068;-72
2023/09/03 04:25:59;;;;;;;4.13;2.00;;;13.90;72.40;;;;;;5087192;28;20318;-73
2023/09/03 04:28:29;;;;;;;4.10;2.00;;;13.90;72.50;;;;;;5072411;28;20048;-72
2023/09/03 04:30:59;;;;;;;5.28;1.80;;;13.90;72.50;;;;;;5109513;28;20048;-72
2023/09/03 04:33:26;;;;;;;3.78;1.70;;;13.90;72.60;;;;;;5072234;27;20403;-72
2023/09/03 04:35:58;;;;;;;4.00;1.67;;;13.90;72.60;;;;;;5073845;28;20536;-72
2023/09/03 04:38:27;;;;;;;4.28;1.70;;;13.90;72.60;;;;;;5087571;28;20308;-72
2023/09/03 04:40:54;;;;;;;4.43;1.80;;;13.80;72.60;;;;;;5098084;27;20055;-72
2023/09/03 04:43:23;;;;;;;4.97;2.40;;;13.70;72.70;;;;;;5090447;27;20044;-72
2023/09/03 04:45:51;;;;;;;5.18;2.25;;;13.70;72.80;;;;;;5071675;28;20094;-71
2023/09/03 04:48:20;;;;;;;5.97;2.07;;;13.70;72.90;;;;;;5123365;27;20103;-73
2023/09/03 04:50:48;;;;;;;5.22;2.22;;;13.70;72.90;;;;;;5092887;27;20350;-72
2023/09/03 04:53:17;;;;;;;4.00;1.90;;;13.70;72.90;;;;;;5119978;27;20052;-73
2023/09/03 04:55:45;;;;;;;4.30;1.60;;;13.60;73.00;;;;;;5071306;28;20538;-72
2023/09/03 04:58:12;;;;;;;6.00;2.10;;;13.60;73.00;;;;;;5077043;28;20052;-72
2023/09/03 05:00:41;;;;;;;5.80;2.70;;;13.60;73.00;;;;;;5072229;28;20183;-72
2023/09/03 05:03:11;;;;;;;4.53;2.33;;;13.60;73.00;;;;;;5089326;27;20312;-72
2023/09/03 05:05:41;;;;;;;4.65;2.50;;;13.50;72.90;;;;;;5092089;28;20537;-72
2023/09/03 05:08:09;;;;;;;5.15;2.53;;;13.50;72.90;;;;;;5078238;28;20044;-72
2023/09/03 05:10:39;;;;;;;6.22;3.38;;;13.50;73.00;;;;;;5102622;27;20143;-72
2023/09/03 05:13:09;;;;;;;7.17;3.50;;;13.50;73.00;;;;;;5085581;27;20044;-72
2023/09/03 05:15:37;;;;;;;6.80;3.58;;;13.50;73.20;;;;;;5085430;28;20253;-72
2023/09/03 05:18:05;;;;;;;6.65;3.58;;;13.40;73.40;;;;;;5119080;27;20052;-72
2023/09/03 05:20:37;;;;;;;6.03;3.35;;;13.40;73.60;;;;;;5143789;27;20072;-72
2023/09/03 05:23:06;;;;;;;6.35;3.28;;;13.40;73.70;;;;;;5083116;27;20474;-72
2023/09/03 05:25:33;;;;;;;7.50;3.70;;;13.30;73.80;;;;;;5102696;27;20151;-72
2023/09/03 05:28:04;;;;;;;6.53;3.80;;;13.30;73.90;;;;;;5105111;27;20279;-72
2023/09/03 05:30:31;;;;;;;7.30;3.80;;;13.30;74.10;;;;;;5108631;27;20440;-72
2023/09/03 05:32:58;;;;;;;7.22;3.80;;;13.30;74.10;;;;;;5085519;28;20060;-72
2023/09/03 05:35:27;;;;;;;7.40;4.00;;;13.30;74.30;;;;;;5089781;27;20192;-72
2023/09/03 05:37:54;;;;;;;8.40;4.07;;;13.30;74.40;;;;;;5084079;28;20191;-72
2023/09/03 05:40:21;;;;;;;6.78;3.80;;;13.30;74.50;;;;;;5073045;28;20267;-72
2023/09/03 05:42:49;;;;;;;6.43;3.42;;;13.30;74.60;;;;;;5108432;27;20052;-72
2023/09/03 05:45:19;;;;;;;6.95;3.75;;;13.30;74.70;;;;;;5123527;27;20064;-72
2023/09/03 05:47:47;;;;;;;7.10;3.95;;;13.30;74.80;;;;;;5083001;28;20075;-72
2023/09/03 05:50:15;;;;;;;7.27;3.70;;;13.30;75.00;;;;;;5122200;27;20605;-72
2023/09/03 05:52:43;;;;;;;6.93;3.92;;;13.30;75.00;;;;;;5079980;28;20281;-72
2023/09/03 05:55:10;;;;;;;6.85;3.95;;;13.30;75.10;;;;;;5071875;27;20056;-72
2023/09/03 05:57:38;;;;;;;7.13;3.97;;;13.30;75.30;;;;;;5118949;27;20135;-72
2023/09/03 06:00:06;;;;;;;7.75;3.53;;;13.30;75.40;;;;;;5070962;28;20045;-72
2023/09/03 06:02:36;;;;;;;8.07;3.97;;;13.30;75.60;;;;;;5125327;27;20051;-72
2023/09/03 06:05:02;;;;;;;6.45;3.70;;;13.30;75.80;;;;;;5104963;27;20267;-72
2023/09/03 06:07:30;;;;;;;6.20;3.58;;;13.30;75.90;;;;;;5113390;27;20122;-72
2023/09/03 06:09:57;;;;;;;7.90;4.13;;;13.30;76.00;;;;;;5105133;27;20048;-72
2023/09/03 06:12:24;;;;;;;7.05;3.67;;;13.30;76.10;;;;;;5088159;27;20072;-72
2023/09/03 06:14:50;;;;;;;7.57;3.80;;;13.40;76.30;;;;;;5089045;27;20132;-72
2023/09/03 06:17:17;;;;;;;6.85;3.75;;;13.40;76.50;;;;;;5097674;27;20401;-72
2023/09/03 06:19:48;;;;;;;7.30;3.90;;;13.40;76.70;;;;;;5112812;27;20040;-73
2023/09/03 06:22:15;;;;;;;6.97;3.70;;;13.40;76.90;;;;;;5116247;27;20040;-73
2023/09/03 06:24:42;;;;;;;6.70;3.50;;;13.40;77.00;;;;;;5109797;27;20054;-73
2023/09/03 06:27:09;;;;;;;7.20;3.93;;;13.50;77.20;;;;;;5121534;27;20109;-73
2023/09/03 06:29:36;;;;;;;6.90;3.45;;;13.50;77.50;;;;;;5103823;27;20776;-73
2023/09/03 06:32:03;;;;;;;6.15;3.72;;;13.50;77.90;;;;;;5096735;27;20143;-72
2023/09/03 06:34:32;;;;;;;6.97;4.03;;;13.50;77.40;;;;;;5106399;27;20529;-73
2023/09/03 06:37:01;;;;;;;8.27;4.50;;;13.50;77.50;;;;;;5101408;27;20060;-73
2023/09/03 06:39:30;;;;;;;7.57;4.60;;;13.50;77.70;;;;;;5116908;27;20512;-73
2023/09/03 06:41:57;;;;;;;7.03;4.35;;;13.50;78.20;;;;;;5101211;27;20246;-73
2023/09/03 06:44:25;;;;;;;7.95;4.65;;;13.50;78.70;;;;;;5122492;27;20040;-73
